Time;durP1;ratioP1;P1;durP2;ratioP2;P2;SDS_P1;SDS_P2;PMS_P1;PMS_P2;Temp;Humidity;BMP_temperature;BMP_pressure;BME280_temperature;BME280_humidity;BME280_pressure;Samples;Min_cycle;Max_cycle;Signal;HPM_P1;HPM_P2
2021/09/29 00:01:55;;;;;;;3.33;2.05;;;;;;;20.87;45.35;101462.56;4997497;28;20061;-60
2021/09/29 00:04:21;;;;;;;4.80;2.10;;;;;;;20.89;44.91;101454.19;4980446;28;20076;-59
2021/09/29 00:06:46;;;;;;;3.20;1.73;;;;;;;20.95;45.00;101456.19;4980447;28;20050;-59
2021/09/29 00:09:12;;;;;;;6.28;2.10;;;;;;;20.97;45.43;101450.56;4997680;28;20375;-60
2021/09/29 00:11:37;;;;;;;3.85;2.00;;;;;;;20.99;45.18;101456.69;4997492;28;20034;-60
2021/09/29 00:14:03;;;;;;;5.53;2.03;;;;;;;21.00;44.72;101456.50;4997200;28;20428;-60
2021/09/29 00:16:28;;;;;;;6.72;2.20;;;;;;;21.00;44.85;101456.50;4997637;28;20069;-60
2021/09/29 00:18:54;;;;;;;7.03;2.22;;;;;;;21.06;45.12;101450.31;4997585;28;20426;-60
2021/09/29 00:21:19;;;;;;;10.13;2.22;;;;;;;21.10;44.89;101445.41;4997212;28;20024;-60
2021/09/29 00:23:44;;;;;;;6.20;2.08;;;;;;;21.10;45.20;101435.34;4997051;28;20025;-59
2021/09/29 00:26:10;;;;;;;6.15;2.25;;;;;;;21.13;44.76;101440.44;4997048;28;20073;-60
2021/09/29 00:28:35;;;;;;;8.43;2.20;;;;;;;21.15;45.44;101443.81;4996412;28;20081;-60
2021/09/29 00:31:45;;;;;;;7.07;2.42;;;;;;;21.16;44.51;101428.31;4996831;28;20018;-60
2021/09/29 00:33:47;;;;;;;5.35;2.88;;;;;;;21.17;45.41;101430.84;4985907;28;20046;-60
2021/09/29 00:36:12;;;;;;;3.25;1.92;;;;;;;21.17;45.33;101435.44;4996597;28;20030;-60
2021/09/29 00:38:38;;;;;;;3.30;2.22;;;;;;;21.15;45.44;101423.91;4996700;28;20025;-60
2021/09/29 00:41:03;;;;;;;3.10;1.90;;;;;;;21.12;45.39;101416.94;4979341;28;20031;-60
2021/09/29 00:43:29;;;;;;;4.80;2.78;;;;;;;21.14;45.33;101417.59;4996797;28;20026;-60
2021/09/29 00:45:54;;;;;;;3.17;1.90;;;;;;;21.12;45.05;101414.22;4996755;28;20475;-60
2021/09/29 00:48:19;;;;;;;4.07;1.95;;;;;;;21.12;45.14;101410.63;4996645;28;20038;-60
2021/09/29 00:50:45;;;;;;;5.07;2.08;;;;;;;21.11;44.88;101409.78;4979815;28;20340;-60
2021/09/29 00:53:10;;;;;;;8.07;1.83;;;;;;;21.08;44.96;101407.41;4979098;28;20363;-60
2021/09/29 00:55:36;;;;;;;5.30;1.90;;;;;;;21.08;45.48;101410.16;4978889;28;20031;-59
2021/09/29 00:58:01;;;;;;;5.82;2.20;;;;;;;21.06;45.04;101398.56;4996957;28;20026;-60
2021/09/29 01:00:27;;;;;;;6.05;2.65;;;;;;;21.06;45.45;101401.28;4996279;28;20030;-60
2021/09/29 01:02:52;;;;;;;5.25;2.75;;;;;;;21.04;45.27;101386.16;4996321;28;20022;-60
2021/09/29 01:05:18;;;;;;;4.45;2.50;;;;;;;20.94;45.16;101377.41;4978857;28;20033;-60
2021/09/29 01:08:05;;;;;;;5.75;2.47;;;;;;;21.02;44.89;101389.03;4979064;28;20533;-60
2021/09/29 01:10:48;;;;;;;5.07;2.40;;;;;;;21.01;45.47;101387.38;4979353;28;20049;-59
2021/09/29 01:13:13;;;;;;;;;;;;;;;21.00;45.43;101374.78;4997042;28;20022;-60
2021/09/29 01:15:46;;;;;;;6.07;2.23;;;;;;;20.97;44.76;101375.13;4996409;28;19914;-60
2021/09/29 01:18:12;;;;;;;9.57;2.33;;;;;;;20.99;44.68;101378.53;4979081;28;20279;-60
2021/09/29 01:20:45;;;;;;;7.47;2.63;;;;;;;20.98;45.32;101371.38;4978931;28;20041;-60
2021/09/29 01:23:17;;;;;;;4.65;1.50;;;;;;;20.97;45.16;101369.69;4996260;28;20093;-60
2021/09/29 01:25:57;;;;;;;10.85;2.42;;;;;;;20.98;44.93;101362.38;4996155;28;20487;-60
2021/09/29 01:28:30;;;;;;;4.25;2.17;;;;;;;20.98;45.48;101356.91;4996657;28;20058;-59
2021/09/29 01:30:58;;;;;;;7.00;2.10;;;;;;;20.95;44.80;101360.84;4996252;28;20061;-60
2021/09/29 01:33:24;;;;;;;6.57;2.28;;;;;;;20.95;45.04;101355.41;4979165;28;20026;-59
2021/09/29 01:35:49;;;;;;;7.72;2.63;;;;;;;20.96;45.74;101350.81;4979004;28;20160;-59
2021/09/29 01:38:15;;;;;;;5.80;2.38;;;;;;;20.92;45.83;101345.72;4996605;28;20113;-60
2021/09/29 01:40:40;;;;;;;4.40;1.90;;;;;;;20.96;44.97;101345.38;4995905;28;20030;-60
2021/09/29 01:43:06;;;;;;;5.05;1.90;;;;;;;20.95;45.18;101336.34;4996070;28;20101;-60
2021/09/29 01:45:31;;;;;;;10.50;2.88;;;;;;;20.95;45.57;101332.75;4995905;28;20360;-60
2021/09/29 01:47:56;;;;;;;6.38;1.65;;;;;;;20.95;45.27;101328.16;4996055;28;20038;-60
2021/09/29 01:50:25;;;;;;;11.32;2.20;;;;;;;20.94;45.86;101331.91;4995531;28;20475;-60
2021/09/29 01:52:51;;;;;;;4.05;1.75;;;;;;;20.90;45.54;101325.16;4978777;28;20057;-60
2021/09/29 01:55:17;;;;;;;6.10;2.13;;;;;;;20.90;45.75;101322.44;4978957;28;20046;-60
2021/09/29 01:57:44;;;;;;;4.68;2.00;;;;;;;20.87;45.23;101320.06;4996364;28;20081;-60
2021/09/29 02:00:11;;;;;;;4.30;1.92;;;;;;;20.89;45.58;101301.66;4978761;28;20084;-60
2021/09/29 02:02:39;;;;;;;5.22;2.20;;;;;;;20.91;45.39;101313.22;4978436;28;20080;-60
2021/09/29 02:05:05;;;;;;;7.85;2.58;;;;;;;20.92;45.19;101301.28;4978296;28;20026;-59
2021/09/29 02:07:31;;;;;;;4.60;1.83;;;;;;;20.91;45.08;101299.59;4996318;28;20442;-60
2021/09/29 02:09:56;;;;;;;8.75;1.90;;;;;;;20.90;44.92;101297.91;4999608;28;20221;-60
2021/09/29 02:12:22;;;;;;;6.13;1.77;;;;;;;20.88;45.41;101294.53;4999497;28;20050;-60
2021/09/29 02:14:47;;;;;;;4.00;1.98;;;;;;;20.88;45.39;101294.53;5000113;28;20049;-60
2021/09/29 02:17:13;;;;;;;4.95;1.90;;;;;;;20.88;45.32;101289.91;4999700;28;20509;-60
2021/09/29 02:19:38;;;;;;;7.32;2.20;;;;;;;20.88;45.22;101294.53;4999718;28;20112;-60
2021/09/29 02:22:03;;;;;;;5.05;1.55;;;;;;;20.81;44.90;101275.38;4999515;28;20030;-60
2021/09/29 02:24:29;;;;;;;3.95;1.55;;;;;;;20.86;45.33;101278.38;4999555;28;20482;-60
2021/09/29 02:26:54;;;;;;;6.32;1.70;;;;;;;20.86;45.22;101274.78;5000103;28;20022;-60
2021/09/29 02:29:20;;;;;;;3.42;2.10;;;;;;;20.85;45.49;101273.94;4998950;28;20483;-60
2021/09/29 02:31:45;;;;;;;3.58;1.80;;;;;;;20.87;44.94;101271.06;4999162;28;20027;-59
2021/09/29 02:34:10;;;;;;;7.63;1.80;;;;;;;20.86;45.46;101270.19;4999501;28;20038;-60
2021/09/29 02:36:36;;;;;;;4.38;1.50;;;;;;;20.86;45.17;101263.91;4999278;28;20022;-60
2021/09/29 02:39:02;;;;;;;3.47;1.75;;;;;;;20.89;44.97;101263.53;4999010;28;20034;-60
2021/09/29 02:41:28;;;;;;;5.57;1.70;;;;;;;20.89;45.03;101263.53;4999176;28;20078;-60
2021/09/29 02:43:53;;;;;;;5.40;1.55;;;;;;;20.86;45.03;101244.84;4999637;28;20024;-60
2021/09/29 02:46:19;;;;;;;3.58;1.50;;;;;;;20.89;45.05;101252.63;4999619;28;20022;-60
2021/09/29 02:48:44;;;;;;;3.50;2.15;;;;;;;20.85;44.81;101245.88;4999202;28;20459;-60
2021/09/29 02:51:10;;;;;;;5.70;1.23;;;;;;;20.86;44.81;101242.13;4999574;28;20057;-59
2021/09/29 02:53:35;;;;;;;3.17;1.42;;;;;;;20.85;46.00;101251.34;4982097;28;20399;-61
2021/09/29 02:56:02;;;;;;;2.90;1.30;;;;;;;20.84;44.95;101244.19;4999267;28;20022;-60
2021/09/29 02:58:28;;;;;;;4.10;1.65;;;;;;;20.86;44.66;101242.13;4981710;28;20027;-60
2021/09/29 03:00:54;;;;;;;2.47;2.28;;;;;;;20.88;45.03;101240.06;4999805;28;20071;-59
2021/09/29 03:03:20;;;;;;;4.60;1.73;;;;;;;20.86;44.75;101237.53;4999582;28;20478;-60
2021/09/29 03:05:46;;;;;;;5.93;1.30;;;;;;;20.86;44.86;101242.97;4999083;28;20036;-60
2021/09/29 03:08:11;;;;;;;5.38;1.80;;;;;;;20.86;45.08;101242.97;4981852;28;20105;-59
2021/09/29 03:10:38;;;;;;;2.67;1.88;;;;;;;20.89;45.26;101239.03;4981617;28;20109;-59
2021/09/29 03:13:04;;;;;;;1.88;1.40;;;;;;;20.88;45.09;101234.63;4997944;28;20026;-60
2021/09/29 03:15:30;;;;;;;3.28;1.80;;;;;;;20.90;45.11;101232.56;4998342;28;20052;-59
2021/09/29 03:17:55;;;;;;;8.07;1.83;;;;;;;20.90;45.49;101225.22;4981520;28;20461;-60
2021/09/29 03:20:21;;;;;;;6.47;1.30;;;;;;;20.95;44.97;101235.56;4998156;28;20407;-60
2021/09/29 03:22:46;;;;;;;5.63;1.60;;;;;;;20.97;45.04;101216.28;4999146;28;20030;-60
2021/09/29 03:25:13;;;;;;;2.65;1.27;;;;;;;20.98;44.87;101213.41;4980971;28;20471;-60
2021/09/29 03:27:38;;;;;;;3.13;1.08;;;;;;;21.01;45.00;101218.47;4998122;28;20566;-60
2021/09/29 03:30:04;;;;;;;3.50;0.93;;;;;;;21.05;45.15;101213.50;4998382;28;20045;-60
2021/09/29 03:32:30;;;;;;;3.95;1.25;;;;;;;21.03;45.65;101205.50;4998288;28;20022;-60
2021/09/29 03:34:55;;;;;;;9.15;1.42;;;;;;;21.05;45.20;101199.88;4998333;28;20022;-60
2021/09/29 03:37:20;;;;;;;4.82;1.10;;;;;;;21.06;45.51;101207.84;4997968;28;20026;-60
2021/09/29 03:39:46;;;;;;;2.13;1.10;;;;;;;21.08;44.73;101202.25;4997896;28;20022;-59
2021/09/29 03:42:11;;;;;;;5.93;1.40;;;;;;;21.08;45.37;101196.81;4997828;28;20407;-60
2021/09/29 03:44:36;;;;;;;2.30;1.17;;;;;;;21.07;45.25;101193.25;4997612;28;20447;-60
2021/09/29 03:47:02;;;;;;;2.00;1.65;;;;;;;21.12;45.75;101193.50;4980503;28;20033;-59
2021/09/29 03:49:27;;;;;;;4.95;1.10;;;;;;;21.12;45.33;101188.06;4997848;28;20110;-60
2021/09/29 03:51:53;;;;;;;7.63;1.20;;;;;;;21.14;45.70;101190.59;4997390;28;20022;-60
2021/09/29 03:54:18;;;;;;;2.53;1.30;;;;;;;21.15;44.84;101182.25;4997414;28;20042;-59
2021/09/29 03:56:43;;;;;;;3.20;1.25;;;;;;;21.14;45.42;101186.00;4996990;28;20172;-60
2021/09/29 03:59:09;;;;;;;5.88;0.63;;;;;;;21.16;44.74;101172.19;4997544;28;20033;-59
2021/09/29 04:01:34;;;;;;;4.10;1.35;;;;;;;21.17;45.35;101174.72;4997038;28;20022;-60
2021/09/29 04:03:59;;;;;;;5.28;1.48;;;;;;;21.19;45.63;101178.09;4997235;28;20529;-60
2021/09/29 04:06:25;;;;;;;7.35;1.60;;;;;;;21.21;45.22;101176.03;4997211;28;20533;-60
2021/09/29 04:08:50;;;;;;;3.42;0.95;;;;;;;21.25;45.42;101179.22;4996966;28;20026;-59
2021/09/29 04:11:16;;;;;;;5.88;1.73;;;;;;;21.29;44.64;101172.34;4996792;28;20105;-60
2021/09/29 04:13:41;;;;;;;2.03;1.20;;;;;;;21.29;44.64;101184.09;4996540;28;20061;-60
2021/09/29 04:16:07;;;;;;;7.43;1.70;;;;;;;21.27;45.35;101169.81;4997298;28;20037;-59
2021/09/29 04:18:32;;;;;;;5.88;1.40;;;;;;;21.32;45.42;101175.56;4996956;28;20041;-59
2021/09/29 04:20:57;;;;;;;4.25;1.08;;;;;;;21.37;45.45;101174.97;4979579;28;20122;-59
2021/09/29 04:23:23;;;;;;;10.05;1.40;;;;;;;21.35;45.00;101177.06;4996668;28;20375;-59
2021/09/29 04:25:51;;;;;;;4.40;2.13;;;;;;;21.35;45.20;101169.72;4996370;28;20439;-60
2021/09/29 04:28:17;;;;;;;5.32;1.40;;;;;;;21.35;45.05;101171.59;4996379;28;20047;-60
2021/09/29 04:30:42;;;;;;;3.35;1.35;;;;;;;21.34;45.10;101176.19;4995390;28;20022;-60
2021/09/29 04:33:08;;;;;;;4.05;0.80;;;;;;;21.35;45.07;101172.44;4996406;28;20076;-60
2021/09/29 04:35:33;;;;;;;5.65;1.10;;;;;;;21.37;45.16;101174.97;4996326;28;20129;-60
2021/09/29 04:37:58;;;;;;;2.83;1.10;;;;;;;21.38;44.73;101177.50;4996083;28;20109;-60
2021/09/29 04:40:24;;;;;;;3.00;0.88;;;;;;;21.35;45.23;101172.44;4996308;28;20025;-60
2021/09/29 04:42:49;;;;;;;3.22;1.20;;;;;;;21.37;44.85;101178.53;4996324;28;20014;-60
2021/09/29 04:45:15;;;;;;;4.22;1.17;;;;;;;21.38;45.27;101177.50;4995709;28;20100;-60
2021/09/29 04:47:40;;;;;;;2.78;1.20;;;;;;;21.39;44.98;101170.16;4995476;28;20030;-62
2021/09/29 04:50:06;;;;;;;4.47;1.02;;;;;;;21.39;45.08;101179.19;4995403;28;20037;-62
2021/09/29 04:52:32;;;;;;;4.63;1.50;;;;;;;21.37;45.00;101174.97;4995828;28;20022;-60
2021/09/29 04:54:57;;;;;;;6.03;1.08;;;;;;;21.35;45.47;101177.06;4995728;28;20037;-60
2021/09/29 04:57:22;;;;;;;8.57;1.13;;;;;;;21.33;45.76;101179.94;4996091;28;20069;-60
2021/09/29 04:59:48;;;;;;;4.43;1.10;;;;;;;21.33;45.45;101177.22;4995827;28;20033;-60
2021/09/29 05:02:14;;;;;;;2.55;1.00;;;;;;;21.29;45.53;101165.03;4995836;28;20467;-60
2021/09/29 05:04:39;;;;;;;2.92;1.40;;;;;;;21.30;45.26;101174.88;4995869;28;20467;-59
2021/09/29 05:07:05;;;;;;;3.30;1.30;;;;;;;21.27;45.74;101177.16;4995535;28;20023;-60
2021/09/29 05:09:31;;;;;;;3.40;1.13;;;;;;;21.29;45.58;101173.19;4978681;28;20030;-59
2021/09/29 05:12:15;;;;;;;4.45;0.98;;;;;;;21.25;45.91;101166.44;4995445;28;20529;-60
2021/09/29 05:14:41;;;;;;;5.13;1.13;;;;;;;21.17;45.97;101158.38;4996039;28;20039;-60
2021/09/29 05:17:06;;;;;;;1.80;1.10;;;;;;;21.19;45.87;101171.81;4995757;28;20117;-60
2021/09/29 05:19:31;;;;;;;2.97;0.80;;;;;;;21.15;46.09;101149.53;4978632;28;20029;-60
2021/09/29 05:21:56;;;;;;;3.00;1.25;;;;;;;21.13;46.37;101146.16;4996036;28;20459;-60
2021/09/29 05:24:22;;;;;;;1.85;0.93;;;;;;;21.17;45.46;101152.91;4978562;28;20034;-60
2021/09/29 05:26:48;;;;;;;4.75;1.20;;;;;;;21.13;46.07;101150.78;4978698;28;20030;-60
2021/09/29 05:29:17;;;;;;;3.45;1.40;;;;;;;21.11;45.71;101153.66;4975333;28;20479;-61
2021/09/29 05:31:42;;;;;;;5.57;1.60;;;;;;;21.13;46.75;101142.59;4983221;28;20112;-60
2021/09/29 05:34:08;;;;;;;3.78;1.30;;;;;;;21.14;46.23;101138.81;4996076;28;20022;-59
2021/09/29 05:36:33;;;;;;;3.75;1.00;;;;;;;21.14;45.93;101138.81;4996348;28;20407;-59
2021/09/29 05:38:58;;;;;;;4.28;1.23;;;;;;;21.12;46.63;101144.47;4995659;28;20050;-60
2021/09/29 05:41:24;;;;;;;6.13;1.40;;;;;;;21.09;46.71;101150.28;4996330;28;20036;-59
2021/09/29 05:43:49;;;;;;;3.97;1.40;;;;;;;21.07;46.35;101152.38;4996565;28;20030;-60
2021/09/29 05:46:14;;;;;;;6.82;1.60;;;;;;;21.07;46.44;101148.78;4995708;28;20034;-61
2021/09/29 05:48:40;;;;;;;5.47;1.35;;;;;;;21.07;45.76;101152.38;4994313;28;20048;-60
2021/09/29 05:51:05;;;;;;;5.05;1.75;;;;;;;21.07;46.69;101141.47;4995514;28;20022;-60
2021/09/29 05:53:30;;;;;;;6.13;1.42;;;;;;;21.11;46.16;101137.31;4995730;28;20030;-60
2021/09/29 05:55:56;;;;;;;3.80;1.55;;;;;;;21.12;46.76;101139.03;4995385;28;20062;-60
2021/09/29 05:58:21;;;;;;;3.42;1.20;;;;;;;21.13;46.37;101143.44;4994431;28;20434;-60
2021/09/29 06:00:47;;;;;;;9.55;1.25;;;;;;;21.14;46.27;101142.41;4995945;28;20026;-60
2021/09/29 06:03:12;;;;;;;3.20;1.25;;;;;;;21.14;46.04;101145.13;4994422;28;20019;-60
2021/09/29 06:05:37;;;;;;;4.55;1.30;;;;;;;21.12;46.91;101144.47;4995242;28;20110;-60
2021/09/29 06:08:03;;;;;;;1.20;0.60;;;;;;;21.15;46.47;101159.59;4995318;28;20110;-60
2021/09/29 06:10:29;;;;;;;4.05;1.25;;;;;;;21.17;46.34;101150.19;4994230;28;20030;-59
2021/09/29 06:12:54;;;;;;;2.67;0.77;;;;;;;21.21;46.13;101146.06;4995253;28;20417;-60
2021/09/29 06:15:22;;;;;;;1.83;0.88;;;;;;;21.26;45.77;101151.78;4994697;28;20053;-60
2021/09/29 06:17:55;;;;;;;2.88;1.05;;;;;;;21.26;46.23;101145.47;4994512;28;20121;-60
2021/09/29 06:20:21;;;;;;;8.27;1.90;;;;;;;21.28;45.85;101148.84;4994829;28;20028;-59
2021/09/29 06:22:46;;;;;;;2.92;1.02;;;;;;;21.31;45.61;101154.78;4995049;28;20082;-60
2021/09/29 06:25:12;;;;;;;2.08;0.77;;;;;;;21.31;45.60;101168.41;4994372;28;20034;-60
2021/09/29 06:27:37;;;;;;;1.25;0.60;;;;;;;21.31;45.77;101168.41;4999342;28;20061;-60
2021/09/29 06:30:03;;;;;;;3.47;1.00;;;;;;;21.25;46.06;101158.25;5014573;28;20022;-60
2021/09/29 06:32:29;;;;;;;6.18;0.90;;;;;;;21.28;46.99;101162.47;5014022;28;20477;-59
2021/09/29 06:34:54;;;;;;;5.63;1.10;;;;;;;21.14;46.70;101158.75;5015044;28;20033;-60
2021/09/29 06:37:19;;;;;;;5.25;1.05;;;;;;;21.10;47.43;101164.78;5014591;28;20022;-60
2021/09/29 06:39:45;;;;;;;3.80;1.23;;;;;;;21.03;46.57;101161.91;5014555;28;20109;-60
2021/09/29 06:42:10;;;;;;;5.50;0.95;;;;;;;20.92;47.09;101154.22;4997775;28;20097;-59
2021/09/29 06:44:35;;;;;;;3.15;0.73;;;;;;;20.83;47.07;101161.63;5014753;28;20026;-59
2021/09/29 06:47:01;;;;;;;6.78;1.40;;;;;;;20.75;47.09;101161.72;5015083;28;20072;-59
2021/09/29 06:49:27;;;;;;;5.13;0.85;;;;;;;20.68;47.48;101152.63;5015118;28;20036;-59
2021/09/29 06:51:53;;;;;;;6.40;1.35;;;;;;;20.68;47.44;101163.53;4997439;28;20018;-59
2021/09/29 06:54:18;;;;;;;3.60;1.27;;;;;;;20.67;48.04;101160.97;5016126;28;20033;-59
2021/09/29 06:56:45;;;;;;;4.38;0.85;;;;;;;20.64;47.39;101155.91;5018532;28;20386;-59
2021/09/29 06:59:10;;;;;;;2.08;0.95;;;;;;;20.57;48.15;101154.97;5018407;28;20018;-59
2021/09/29 07:01:36;;;;;;;8.90;1.75;;;;;;;20.56;48.16;101162.28;5001538;28;20037;-59
2021/09/29 07:04:01;;;;;;;5.47;1.23;;;;;;;20.53;47.96;101162.66;5018543;28;20057;-59
2021/09/29 07:06:28;;;;;;;4.32;1.17;;;;;;;20.49;48.23;101163.22;5018201;28;20036;-60
2021/09/29 07:08:54;;;;;;;5.55;1.45;;;;;;;20.35;48.50;101155.88;5001410;28;20068;-61
2021/09/29 07:11:19;;;;;;;5.50;1.17;;;;;;;20.22;49.08;101154.56;5018508;28;20405;-59
2021/09/29 07:13:46;;;;;;;3.30;1.02;;;;;;;20.12;48.71;101151.28;5018146;28;20390;-59
2021/09/29 07:16:14;;;;;;;2.58;0.98;;;;;;;20.04;48.80;101172.25;5018428;28;20026;-59
2021/09/29 07:18:41;;;;;;;2.55;0.93;;;;;;;20.01;49.33;101168.03;5001261;28;20029;-59
2021/09/29 07:21:06;;;;;;;4.05;1.17;;;;;;;19.99;49.30;101177.41;5018813;28;20030;-59
2021/09/29 07:23:32;;;;;;;2.03;0.85;;;;;;;19.90;49.63;101171.19;5018680;28;20029;-62
2021/09/29 07:25:58;;;;;;;3.97;1.42;;;;;;;19.91;49.69;101191.88;5018484;28;20053;-60
2021/09/29 07:28:23;;;;;;;6.95;0.90;;;;;;;19.88;49.55;101188.69;5000414;28;20056;-62
2021/09/29 07:30:49;;;;;;;3.95;1.08;;;;;;;19.81;49.89;101196.72;5018481;28;20541;-63
2021/09/29 07:33:16;;;;;;;2.35;1.00;;;;;;;19.77;49.81;101195.38;5000938;28;20347;-63
2021/09/29 07:35:43;;;;;;;2.67;0.88;;;;;;;19.74;50.36;101201.16;5001324;28;20065;-60
2021/09/29 07:38:09;;;;;;;3.53;0.88;;;;;;;19.70;49.39;101195.28;5018528;28;20025;-59
2021/09/29 07:40:35;;;;;;;3.75;1.30;;;;;;;19.67;50.20;101194.78;5000132;28;20463;-59
2021/09/29 07:43:03;;;;;;;7.80;0.90;;;;;;;19.60;50.14;101186.47;5018485;28;20045;-58
2021/09/29 07:45:28;;;;;;;2.75;1.08;;;;;;;19.58;50.39;101180.38;5000882;28;20472;-59
2021/09/29 07:47:53;;;;;;;1.25;0.63;;;;;;;19.58;50.51;101185.81;5018742;28;20141;-60
2021/09/29 07:50:19;;;;;;;1.25;0.77;;;;;;;19.59;50.41;101186.66;5001214;28;20044;-61
2021/09/29 07:52:45;;;;;;;1.75;0.63;;;;;;;19.58;50.20;101182.25;5018210;28;20064;-61
2021/09/29 07:55:12;;;;;;;4.15;0.70;;;;;;;19.58;50.38;101187.69;5018409;28;20108;-59
2021/09/29 07:57:38;;;;;;;3.58;0.93;;;;;;;19.59;50.60;101186.66;5018321;28;20018;-58
2021/09/29 08:00:04;;;;;;;1.25;0.50;;;;;;;19.66;51.23;101182.19;5018350;28;20049;-58
2021/09/29 08:02:30;;;;;;;0.60;0.35;;;;;;;19.68;50.30;101180.16;5018880;28;20225;-58
2021/09/29 08:04:58;;;;;;;1.67;0.40;;;;;;;19.71;50.31;101185.22;5001051;28;20462;-59
2021/09/29 08:07:24;;;;;;;1.25;0.47;;;;;;;19.73;50.26;101188.63;5018014;28;20021;-59
2021/09/29 08:09:49;;;;;;;0.98;0.57;;;;;;;19.76;49.92;101190.97;5018029;28;20076;-58
2021/09/29 08:12:14;;;;;;;0.57;0.30;;;;;;;19.73;50.13;101196.78;5016928;28;20036;-61
2021/09/29 08:14:40;;;;;;;2.03;0.32;;;;;;;19.71;50.57;101196.94;5017201;28;20079;-61
2021/09/29 08:17:06;;;;;;;2.10;0.77;;;;;;;19.75;50.39;101202.88;5016710;28;20029;-61
2021/09/29 08:19:32;;;;;;;2.25;0.40;;;;;;;19.77;50.42;101195.38;5016254;28;20033;-61
2021/09/29 08:21:58;;;;;;;0.30;0.28;;;;;;;19.81;50.11;101209.47;5016413;28;20029;-61
2021/09/29 08:24:34;;;;;;;0.50;0.30;;;;;;;19.85;50.35;101227.94;5016347;28;20047;-61
2021/09/29 08:39:59;;;;;;;1.33;0.28;;;;;;;19.99;50.28;101240.78;5016339;28;20060;-61
2021/09/29 08:42:31;;;;;;;0.22;0.22;;;;;;;19.95;49.86;101247.63;4999169;28;20025;-61
2021/09/29 08:45:03;;;;;;;2.90;0.50;;;;;;;19.94;50.42;101245.91;5015847;28;20050;-61
2021/09/29 08:47:35;;;;;;;0.47;0.20;;;;;;;19.95;50.27;101249.47;5015518;28;20029;-61
2021/09/29 08:55:29;;;;;;;1.15;0.28;;;;;;;19.91;50.14;101251.72;5015910;28;20429;-61
2021/09/29 09:16:59;;;;;;;1.30;0.30;;;;;;;20.15;50.16;101292.38;5015225;28;20443;-61
2021/09/29 09:19:27;;;;;;;0.68;0.20;;;;;;;20.17;50.24;101284.03;5015605;28;20065;-61
2021/09/29 09:21:59;;;;;;;1.85;0.40;;;;;;;20.23;50.17;101284.16;5015802;28;20021;-61
2021/09/29 09:24:27;;;;;;;1.45;0.32;;;;;;;20.35;50.20;101291.94;5015551;28;20377;-61
2021/09/29 09:27:02;;;;;;;1.42;0.30;;;;;;;20.45;49.68;101289.81;5015261;28;20118;-61
2021/09/29 09:29:28;;;;;;;2.22;0.30;;;;;;;20.52;49.58;101288.88;5015252;28;20054;-61
2021/09/29 09:32:06;;;;;;;1.02;0.38;;;;;;;20.61;49.42;101303.28;5015293;28;20030;-61
2021/09/29 09:34:32;;;;;;;1.50;0.32;;;;;;;20.65;49.27;101300.03;5015028;28;20025;-61
2021/09/29 09:36:57;;;;;;;0.50;0.50;;;;;;;20.70;49.08;101294.00;5015224;28;20402;-61
2021/09/29 09:39:25;;;;;;;0.95;0.30;;;;;;;20.71;49.71;101303.88;5015305;28;20099;-61
2021/09/29 09:41:52;;;;;;;0.43;0.43;;;;;;;20.70;49.87;101302.19;5014794;28;20382;-61
2021/09/29 09:44:26;;;;;;;0.68;0.43;;;;;;;20.67;49.32;101297.09;4997441;28;20030;-61
2021/09/29 09:47:10;;;;;;;0.40;0.30;;;;;;;20.68;49.47;101306.97;5015100;28;20025;-61
2021/09/29 09:49:53;;;;;;;0.77;0.40;;;;;;;20.78;49.43;101310.28;5015286;28;20053;-61
2021/09/29 09:52:31;;;;;;;0.30;0.30;;;;;;;20.94;48.87;101307.41;5014756;28;20030;-61
2021/09/29 09:55:06;;;;;;;0.80;0.30;;;;;;;21.07;49.14;101302.22;5014824;28;20041;-61
2021/09/29 09:57:34;;;;;;;0.70;0.35;;;;;;;21.20;48.94;101309.72;5014455;28;20022;-61
2021/09/29 09:59:59;;;;;;;1.23;0.60;;;;;;;21.31;48.29;101310.13;4997378;28;20021;-61
2021/09/29 10:02:25;;;;;;;1.23;0.40;;;;;;;21.88;48.10;101293.09;5014587;28;20512;-61
2021/09/29 10:04:50;;;;;;;0.40;0.20;;;;;;;22.10;47.20;101275.72;5013558;28;20021;-62
2021/09/29 10:07:16;;;;;;;0.52;0.40;;;;;;;23.00;47.09;101293.19;5013698;28;20029;-62
2021/09/29 10:09:52;;;;;;;0.40;0.30;;;;;;;22.89;47.23;101291.00;4996709;28;20029;-62
2021/09/29 10:23:06;;;;;;;2.10;0.60;;;;;;;22.75;47.13;101302.88;4998845;28;20080;-60
2021/09/29 10:28:18;;;;;;;1.40;1.05;;;;;;;22.86;47.34;101305.06;5013222;28;20056;-60
2021/09/29 10:33:52;;;;;;;1.15;0.98;;;;;;;23.61;45.85;101299.72;5017381;28;20033;-60
2021/09/29 10:42:03;;;;;;;0.98;0.98;;;;;;;24.56;45.37;101318.81;5002386;28;20454;-60
2021/09/29 10:45:27;;;;;;;1.00;0.90;;;;;;;24.52;45.33;101306.56;5017170;28;20022;-61
2021/09/29 10:47:49;;;;;;;2.50;1.38;;;;;;;24.58;45.08;101319.44;5014772;28;20053;-60
2021/09/29 11:28:31;;;;;;;3.42;1.33;;;;;;;29.97;39.07;101338.19;5016034;28;20048;-60
2021/09/29 11:31:04;;;;;;;2.20;0.55;;;;;;;30.58;37.45;101346.63;5016489;28;20026;-61
2021/09/29 11:33:57;;;;;;;2.03;0.70;;;;;;;30.98;36.89;101348.47;5015970;28;20030;-59
2021/09/29 11:36:31;;;;;;;3.58;0.50;;;;;;;30.22;37.88;101352.53;5015981;28;20394;-59
2021/09/29 12:11:39;;;;;;;0.40;0.20;;;;;;;26.74;36.54;101483.00;5015626;28;20033;-61
2021/09/29 12:14:15;;;;;;;0.63;0.28;;;;;;;25.94;36.87;101484.28;5015604;28;20045;-61
2021/09/29 12:16:41;;;;;;;1.77;0.20;;;;;;;25.40;37.78;101489.13;5015445;28;20037;-61
2021/09/29 12:19:21;;;;;;;0.20;0.10;;;;;;;25.00;37.76;101476.41;5015210;28;20033;-61
2021/09/29 12:22:08;;;;;;;1.75;0.20;;;;;;;24.53;38.29;101475.41;5015500;28;20053;-60
2021/09/29 12:24:36;;;;;;;0.80;0.20;;;;;;;24.12;38.99;101488.25;5000581;28;20038;-61
2021/09/29 12:27:03;;;;;;;1.30;0.10;;;;;;;23.81;38.78;101496.00;5015344;28;20037;-61
2021/09/29 12:29:37;;;;;;;0.88;0.25;;;;;;;23.65;39.00;101500.72;5012942;28;20073;-61
2021/09/29 12:32:43;;;;;;;0.32;0.32;;;;;;;23.53;38.54;101499.56;5015461;28;20044;-61
2021/09/29 12:37:59;;;;;;;0.80;0.30;;;;;;;25.32;36.81;101492.09;5015254;28;20030;-65
2021/09/29 12:40:30;;;;;;;1.42;0.50;;;;;;;26.29;36.38;101493.09;5014634;28;20397;-61
2021/09/29 12:43:00;;;;;;;0.65;0.20;;;;;;;26.99;35.51;101486.69;4997841;28;20029;-61
2021/09/29 12:45:28;;;;;;;0.55;0.20;;;;;;;27.52;35.18;101486.34;4997639;28;20026;-60
2021/09/29 12:47:53;;;;;;;2.03;0.40;;;;;;;27.94;34.79;101502.06;4997724;28;20471;-61
2021/09/29 12:50:22;;;;;;;0.40;0.40;;;;;;;28.28;35.64;101497.94;5015451;28;20101;-61
2021/09/29 12:53:04;;;;;;;3.20;0.40;;;;;;;28.49;35.28;101493.84;5014271;28;20030;-60
2021/09/29 12:55:35;;;;;;;1.52;0.28;;;;;;;28.74;35.34;101500.13;5014924;28;20437;-61
2021/09/29 12:58:00;;;;;;;1.02;0.50;;;;;;;29.07;34.47;101496.91;5014647;28;20028;-61
2021/09/29 13:00:26;;;;;;;0.70;0.50;;;;;;;29.34;34.79;101493.53;5014922;28;20025;-61
2021/09/29 13:02:51;;;;;;;2.80;1.13;;;;;;;29.50;35.26;101492.03;5015084;28;20018;-61
2021/09/29 13:05:17;;;;;;;0.70;0.22;;;;;;;29.26;35.38;101491.13;5014752;28;20037;-61
2021/09/29 13:07:42;;;;;;;1.52;0.40;;;;;;;29.26;34.51;101498.56;5014614;28;20026;-61
2021/09/29 13:10:08;;;;;;;0.60;0.20;;;;;;;29.19;34.60;101495.91;5014514;28;20035;-61
2021/09/29 13:12:34;;;;;;;2.03;0.40;;;;;;;29.36;34.98;101502.47;5014339;28;20050;-61
2021/09/29 13:14:59;;;;;;;0.70;0.30;;;;;;;29.42;34.67;101507.03;4997041;28;20026;-62
2021/09/29 13:17:27;;;;;;;1.15;0.30;;;;;;;29.49;33.96;101511.59;5014371;28;20113;-61
2021/09/29 13:19:58;;;;;;;3.50;0.68;;;;;;;29.53;34.21;101502.63;4996724;28;20022;-61
2021/09/29 13:22:25;;;;;;;0.43;0.38;;;;;;;29.59;33.38;101489.78;5014297;28;20030;-62
2021/09/29 13:36:33;;;;;;;2.70;0.22;;;;;;;28.93;33.34;101534.91;5014274;28;20402;-62
2021/09/29 13:38:14;;;;;;;0.63;0.17;;;;;;;28.86;34.09;101534.16;5013643;28;20026;-62
2021/09/29 13:40:42;;;;;;;1.05;0.40;;;;;;;28.79;33.25;101538.91;4996498;28;20454;-62
2021/09/29 13:43:09;;;;;;;2.45;0.38;;;;;;;28.78;33.03;101542.75;5014045;28;20034;-61
2021/09/29 13:45:35;;;;;;;1.70;0.40;;;;;;;28.29;33.60;101541.78;5013608;28;20112;-61
2021/09/29 13:48:01;;;;;;;2.08;0.22;;;;;;;27.72;33.85;101553.13;5013636;28;20113;-62
2021/09/29 13:50:26;;;;;;;2.10;0.50;;;;;;;27.24;34.93;101568.44;4996369;28;20068;-61